Terminal Aerodrome Forecast
Issued by NWS Glasgow, MT

Home | Current Version | Previous Version | Text Only | Print | Product List | Glossary On
Versions: 1 2 3 4 5 6 7 8 9 10 11 12 13 14
000
FTUS45 KGGW 290200 AAA
TAFGGW
TAF AMD
KGGW 290242Z 2903/2924 30023G30KT 6SM -RA BKN030 OVC060
     FM290600 29013G19KT P6SM SCT070
     FM291200 VRB05KT P6SM SCT230=

USA.gov is the U.S. government's official web portal to all federal, state and local government web resources and services.